Sunday, November 19, 2017, 5:38 AM EST
Back to Local

KHIE, Mt Washington Regional Airport

Location: Jefferson, NH, United States Lat: 44.367
Local Time: 5:38 AM EST (10:38 GMT) Lon: -71.55
Time Zone: US/Eastern Elev: 1072 ft

Show me the last for .
Show Decoded

2017-11-19 04:52 METAR KHIE 190952Z AUTO 30004KT 7SM OVC029 02/02 A2917 RMK AO2 RAE49 SLP888
                 P0003 T00170017 =
2017-11-19 04:29 METAR KHIE 190929Z AUTO 00000KT 4SM -RA BR FEW002 OVC029 02/02 A2917 RMK AO2
                 P0003 T00220017 =
2017-11-19 03:52 METAR KHIE 190852Z AUTO 00000KT 6SM -RA BR OVC027 02/02 A2920 RMK AO2 UPB14E17
                 SLP899 P0001 60008 T00220022 57042 =
2017-11-19 03:39 METAR KHIE 190839Z AUTO 00000KT 6SM -RA BR BKN029 OVC034 02/02 A2919 RMK AO2
                 UPB14E17 PRESFR P0001 T00170017 =
2017-11-19 02:52 METAR KHIE 190752Z AUTO 00000KT 3SM -RA BR OVC033 02/01 A2924 RMK AO2 PRESFR
                 SLP912 P0005 T00170011 =
2017-11-19 02:27 METAR KHIE 190727Z AUTO 00000KT 4SM -RA BR FEW024 OVC031 02/01 A2927 RMK AO2
                 P0003 T00170011 =
2017-11-19 02:16 METAR KHIE 190716Z AUTO 00000KT 2 1/2SM -RA BR FEW024 OVC031 02/01 A2928 RMK AO2
                 P0002 T00170011 =
2017-11-19 02:05 METAR KHIE 190705Z AUTO 00000KT 3SM -RA BR FEW024 OVC031 02/01 A2929 RMK AO2
                 P0002 T00170011 =
2017-11-19 01:52 METAR KHIE 190652Z AUTO 00000KT 3SM -RA BR OVC029 02/01 A2930 RMK AO2 SLP931
                 P0002 T00170011 =
2017-11-19 01:15 METAR KHIE 190615Z AUTO 35004KT 3SM -RA BR SCT022 BKN030 OVC034 01/01 A2930 RMK
                 AO2 P0001 T00110011 =
2017-11-19 00:52 METAR KHIE 190552Z AUTO 26003KT 2 1/2SM -RA BR OVC026 01/01 A2933 RMK AO2 RAB07
                 SLP944 P0002 60012 I6001 T00110011 10011 20000 57045 =
2017-11-19 00:07 METAR KHIE 190507Z AUTO 30006KT 6SM -RA BR OVC029 01/01 A2936 RMK AO2 RAB07
                 P0000 T00110006 =
2017-11-18 23:52 METAR KHIE 190452Z AUTO 28004KT 5SM BR OVC030 01/01 A2937 RMK AO2 RAE47UPB27E31
                 SLP957 P0000 T00110006 400111117 =
2017-11-18 22:52 METAR KHIE 190352Z AUTO 00000KT 5SM -RA BR FEW026 BKN034 OVC043 01/01 A2943 RMK
                 AO2 RAB03FZRAE03 SLP979 P0005 I1000 T00060006 =
2017-11-18 22:07 METAR KHIE 190307Z AUTO 28003KT 4SM -RA BR SCT024 BKN030 OVC045 01/01 A2946 RMK
                 AO2 RAB03FZRAE03 P0002 I1000 T00060006 =
2017-11-18 22:02 METAR KHIE 190302Z AUTO 29004KT 4SM -FZRA BR BKN026 BKN030 OVC045 01/01 A2947
                 RMK AO2 P0001 I1000 T00060006 =
2017-11-18 21:52 METAR KHIE 190252Z AUTO 30003KT 5SM -FZRA BR SCT028 OVC044 01/00 A2947 RMK AO2
                 RAB00E36FZRAB36 SLP993 P0003 60005 I1001 I3001 T00060000 58036 =
2017-11-18 21:45 METAR KHIE 190245Z AUTO 30005KT 6SM -FZRA BR SCT026 BKN031 OVC044 01/00 A2947
                 RMK AO2 RAB00E36FZRAB36 P0003 I1001 T00060000 =
2017-11-18 21:36 METAR KHIE 190236Z AUTO 24003KT 7SM -FZRA BKN026 OVC035 01/M01 A2947 RMK AO2
                 RAB00E36FZRAB36 P0002 I1001 T00061006 =
2017-11-18 20:52 METAR KHIE 190152Z AUTO VRB03KT 10SM OVC029 01/00 A2950 RMK AO2 UPE06RAB06E09
                 SLP006 P0000 T00060000 =
2017-11-18 19:52 METAR KHIE 190052Z AUTO 00000KT 10SM UP OVC027 00/M01 A2955 RMK AO2 RAE07UPB07
                 SLP023 P0002 T00001006 =
2017-11-18 19:34 METAR KHIE 190034Z AUTO 33003KT 7SM UP OVC029 00/M02 A2956 RMK AO2 RAE07UPB07
                 P0002 T00001017 =
2017-11-18 18:52 METAR KHIE 182352Z AUTO 32003KT 10SM -RA OVC033 01/M04 A2958 RMK AO2 RAB45
                 SLP034 P0000 60000 T00061044 10011 20000 56015 =
2017-11-18 17:52 METAR KHIE 182252Z AUTO 00000KT 10SM OVC044 01/M06 A2960 RMK AO2 SLP041
                 T00061056 =
2017-11-18 16:52 METAR KHIE 182152Z AUTO 30003KT 10SM FEW070 OVC100 00/M04 A2960 RMK AO2 SLP041
                 T00001044 =
2017-11-18 15:52 METAR KHIE 182052Z AUTO 29004KT 10SM OVC100 01/M06 A2963 RMK AO2 SLP049
                 T00061056 58026 =
2017-11-18 14:52 METAR KHIE 181952Z AUTO 28003KT 10SM BKN070 OVC090 01/M06 A2966 RMK AO2 SLP060
                 T00061061 =
2017-11-18 13:52 METAR KHIE 181852Z AUTO 00000KT 10SM BKN100 OVC110 01/M06 A2968 RMK AO2 SLP068
                 T00111061 =
2017-11-18 12:52 METAR KHIE 181752Z AUTO 00000KT 10SM SCT120 01/M07 A2970 RMK AO2 SLP076
                 T00061067 10006 21117 56044 =
2017-11-18 11:52 METAR KHIE 181652Z AUTO 29003KT 10SM SCT110 M01/M07 A2972 RMK AO2 SLP082
                 T10061067 =
2017-11-18 10:52 METAR KHIE 181552Z AUTO 00000KT 10SM CLR M01/M07 A2980 RMK AO2 SLP108 T10111072
                 =
2017-11-18 09:52 METAR KHIE 181452Z AUTO 00000KT 10SM CLR M03/M07 A2984 RMK AO2 SLP122 T10331072
                 58022 =
2017-11-18 08:52 METAR KHIE 181352Z AUTO 00000KT 10SM CLR M07/M09 A2986 RMK AO2 SLP132 T10721089
                 =
2017-11-18 07:52 METAR KHIE 181252Z AUTO 08003KT 10SM BKN120 M09/M11 A2989 RMK AO2 SLP140
                 T10891106 =
2017-11-18 06:52 METAR KHIE 181152Z AUTO 00000KT 10SM CLR M12/M13 A2991 RMK AO2 SLP148 I1000
                 I6001 T11171128 11094 21117 58021 =
2017-11-18 05:52 METAR KHIE 181052Z AUTO 00000KT 10SM CLR M11/M13 A2994 RMK AO2 PRESFR SLP159
                 I1000 T11111128 =

Support USWX by starting your Amazon purchase here.